createdAt,value
2017-11-03T00:00:13.050Z,1007
2017-11-03T00:01:15.430Z,1007
2017-11-03T00:02:17.797Z,1007.1
2017-11-03T00:03:20.164Z,1007.1
2017-11-03T00:04:22.534Z,1007.1
2017-11-03T00:05:24.909Z,1007.1
2017-11-03T00:06:27.277Z,1007.2
2017-11-03T00:07:29.655Z,1007.1
2017-11-03T00:08:32.029Z,1007.2
2017-11-03T00:09:34.754Z,1007.2
2017-11-03T00:10:37.128Z,1007.1
2017-11-03T00:11:39.512Z,1007.2
2017-11-03T00:12:41.880Z,1007.1
2017-11-03T00:13:44.614Z,1007.1
2017-11-03T00:14:46.986Z,1007.1
2017-11-03T00:15:49.362Z,1007.1
2017-11-03T00:16:51.728Z,1007.1
2017-11-03T00:17:54.099Z,1007.1
2017-11-03T00:18:56.473Z,1007.1
2017-11-03T00:19:59.202Z,1007.2
2017-11-03T00:21:01.573Z,1007.2
2017-11-03T00:22:03.946Z,1007.2
2017-11-03T00:23:06.321Z,1007.2
2017-11-03T00:24:09.037Z,1007.2
2017-11-03T00:25:11.769Z,1007.2
2017-11-03T00:26:14.137Z,1007.2
2017-11-03T00:27:16.506Z,1007.2
2017-11-03T00:28:18.880Z,1007.2
2017-11-03T00:29:21.247Z,1007.2
2017-11-03T00:30:23.622Z,1007.2
2017-11-03T00:31:25.994Z,1007.3
2017-11-03T00:32:28.362Z,1007.3
2017-11-03T00:33:31.081Z,1007.3
2017-11-03T00:34:33.826Z,1007.3
2017-11-03T00:35:36.566Z,1007.3
2017-11-03T00:36:39.291Z,1007.4
2017-11-03T00:37:42.014Z,1007.4
2017-11-03T00:38:44.386Z,1007.4
2017-11-03T00:39:46.767Z,1007.3
2017-11-03T00:40:49.137Z,1007.4
2017-11-03T00:41:51.502Z,1007.4
2017-11-03T00:42:53.875Z,1007.4
2017-11-03T00:43:56.246Z,1007.4
2017-11-03T00:44:58.625Z,1007.4
2017-11-03T00:46:00.977Z,1007.4
2017-11-03T00:47:03.349Z,1007.4
2017-11-03T00:48:06.103Z,1007.4
2017-11-03T00:49:08.471Z,1007.4
2017-11-03T00:50:10.856Z,1007.5
2017-11-03T00:51:13.216Z,1007.5
2017-11-03T00:52:15.856Z,1007.5
2017-11-03T00:53:18.236Z,1007.5
2017-11-03T00:54:20.607Z,1007.5
2017-11-03T00:55:22.971Z,1007.5
2017-11-03T00:56:25.358Z,1007.5
2017-11-03T00:57:27.731Z,1007.5
2017-11-03T00:58:30.112Z,1007.5
2017-11-03T00:59:32.495Z,1007.5
2017-11-03T01:00:34.857Z,1007.6
2017-11-03T01:01:37.227Z,1007.6
2017-11-03T01:02:39.601Z,1007.5
2017-11-03T01:03:41.974Z,1007.5
2017-11-03T01:04:44.344Z,1007.5
2017-11-03T01:05:46.724Z,1007.6
2017-11-03T01:06:49.095Z,1007.5
2017-11-03T01:07:51.476Z,1007.5
2017-11-03T01:08:53.856Z,1007.6
2017-11-03T01:09:56.214Z,1007.6
2017-11-03T01:10:58.586Z,1007.5
2017-11-03T01:12:00.961Z,1007.5
2017-11-03T01:13:03.334Z,1007.5
2017-11-03T01:14:05.714Z,1007.5
2017-11-03T01:15:08.085Z,1007.5
2017-11-03T01:16:10.458Z,1007.5
2017-11-03T01:17:12.831Z,1007.6
2017-11-03T01:18:15.201Z,1007.5
2017-11-03T01:19:17.594Z,1007.5
2017-11-03T01:20:19.969Z,1007.6
2017-11-03T01:21:22.338Z,1007.6
2017-11-03T01:22:25.072Z,1007.6
2017-11-03T01:23:27.787Z,1007.6
2017-11-03T01:24:30.163Z,1007.6
2017-11-03T01:25:32.548Z,1007.6
2017-11-03T01:26:34.910Z,1007.5
2017-11-03T01:27:37.282Z,1007.6
2017-11-03T01:28:39.665Z,1007.6
2017-11-03T01:29:42.036Z,1007.6
2017-11-03T01:30:44.791Z,1007.6
2017-11-03T01:31:47.165Z,1007.6
2017-11-03T01:32:49.540Z,1007.7
2017-11-03T01:33:51.926Z,1007.6
2017-11-03T01:34:54.297Z,1007.6
2017-11-03T01:35:56.665Z,1007.7
2017-11-03T01:36:59.394Z,1007.7
2017-11-03T01:38:01.779Z,1007.7
2017-11-03T01:39:04.157Z,1007.7
2017-11-03T01:40:06.535Z,1007.7
2017-11-03T01:41:08.902Z,1007.7
2017-11-03T01:42:11.617Z,1007.7
2017-11-03T01:43:14.009Z,1007.7
2017-11-03T01:44:16.384Z,1007.7
2017-11-03T01:45:18.760Z,1007.7
2017-11-03T01:46:21.124Z,1007.7
2017-11-03T01:47:23.493Z,1007.7
2017-11-03T01:48:25.865Z,1007.7
2017-11-03T01:49:28.251Z,1007.7
2017-11-03T01:50:30.613Z,1007.7
2017-11-03T01:51:33.343Z,1007.7
2017-11-03T01:52:35.712Z,1007.6
2017-11-03T01:53:38.090Z,1007.7
2017-11-03T01:54:40.818Z,1007.7
2017-11-03T01:55:43.197Z,1007.7
2017-11-03T01:56:45.921Z,1007.7
2017-11-03T01:57:48.289Z,1007.7
2017-11-03T01:58:51.012Z,1007.7
2017-11-03T01:59:53.390Z,1007.7
2017-11-03T02:00:55.763Z,1007.7
2017-11-03T02:01:58.494Z,1007.7
2017-11-03T02:03:00.918Z,1007.7
2017-11-03T02:04:03.292Z,1007.8
2017-11-03T02:05:05.668Z,1007.8
2017-11-03T02:06:08.383Z,1007.8
2017-11-03T02:07:10.753Z,1007.8
2017-11-03T02:08:13.135Z,1007.8
2017-11-03T02:09:15.859Z,1007.8
2017-11-03T02:10:18.220Z,1007.8
2017-11-03T02:11:20.592Z,1007.8
2017-11-03T02:12:22.962Z,1007.8
2017-11-03T02:13:25.335Z,1007.8
2017-11-03T02:14:27.713Z,1007.8
2017-11-03T02:15:30.432Z,1007.8
2017-11-03T02:16:32.802Z,1007.8
2017-11-03T02:17:35.171Z,1007.8
2017-11-03T02:18:37.550Z,1007.8
2017-11-03T02:19:39.916Z,1007.8
2017-11-03T02:20:42.294Z,1007.8
2017-11-03T02:21:44.666Z,1007.8
2017-11-03T02:22:47.048Z,1007.8
2017-11-03T02:23:49.427Z,1007.8
2017-11-03T02:24:51.808Z,1007.9
2017-11-03T02:25:54.179Z,1007.9
2017-11-03T02:26:56.553Z,1007.9
2017-11-03T02:27:58.928Z,1007.9
2017-11-03T02:29:01.298Z,1007.9
2017-11-03T02:30:03.669Z,1007.9
2017-11-03T02:31:06.036Z,1007.9
2017-11-03T02:32:08.403Z,1007.9
2017-11-03T02:33:10.783Z,1007.9
2017-11-03T02:34:13.153Z,1008
2017-11-03T02:35:15.517Z,1007.9
2017-11-03T02:36:17.900Z,1008
2017-11-03T02:37:20.278Z,1008
2017-11-03T02:38:22.651Z,1008
2017-11-03T02:39:25.033Z,1007.9
2017-11-03T02:40:27.405Z,1008
2017-11-03T02:41:29.775Z,1008
2017-11-03T02:42:32.163Z,1008
2017-11-03T02:43:34.529Z,1008
2017-11-03T02:44:36.906Z,1008
2017-11-03T02:45:39.626Z,1008
2017-11-03T02:46:42.005Z,1008
2017-11-03T02:47:44.371Z,1008
2017-11-03T02:48:46.743Z,1008
2017-11-03T02:49:49.133Z,1008.1
2017-11-03T02:50:51.503Z,1008.1
2017-11-03T02:51:53.876Z,1008
2017-11-03T02:52:56.249Z,1008.1
2017-11-03T02:53:58.612Z,1008
2017-11-03T02:55:00.984Z,1008.1
2017-11-03T02:56:03.359Z,1008.1
2017-11-03T02:57:05.724Z,1008.1
2017-11-03T02:58:08.097Z,1008.1
2017-11-03T02:59:10.476Z,1008.1
2017-11-03T03:00:12.837Z,1008.1
2017-11-03T03:01:15.218Z,1008.1
2017-11-03T03:02:17.588Z,1008.1
2017-11-03T03:03:19.962Z,1008.1
2017-11-03T03:04:22.339Z,1008.1
2017-11-03T03:05:24.712Z,1008.1
2017-11-03T03:06:27.086Z,1008.1
2017-11-03T03:07:29.470Z,1008.1
2017-11-03T03:08:31.831Z,1008.1
2017-11-03T03:09:34.205Z,1008.1
2017-11-03T03:10:36.581Z,1008.2
2017-11-03T03:11:38.951Z,1008.2
2017-11-03T03:12:41.684Z,1008.2
2017-11-03T03:13:44.070Z,1008.2
2017-11-03T03:14:46.444Z,1008.1
2017-11-03T03:15:48.806Z,1008.1
2017-11-03T03:16:51.182Z,1008.2
2017-11-03T03:17:53.563Z,1008.2
2017-11-03T03:18:55.923Z,1008.1
2017-11-03T03:19:58.301Z,1008.1
2017-11-03T03:21:00.664Z,1008.1
2017-11-03T03:22:03.039Z,1008.2
2017-11-03T03:23:05.445Z,1008.2
2017-11-03T03:24:07.815Z,1008.2
2017-11-03T03:25:10.184Z,1008.2
2017-11-03T03:26:12.555Z,1008.2
2017-11-03T03:27:14.932Z,1008.2
2017-11-03T03:28:17.664Z,1008.3
2017-11-03T03:29:20.032Z,1008.3
2017-11-03T03:30:22.402Z,1008.3
2017-11-03T03:31:24.771Z,1008.3
2017-11-03T03:32:27.150Z,1008.3
2017-11-03T03:33:29.523Z,1008.3
2017-11-03T03:34:31.895Z,1008.3
2017-11-03T03:35:34.270Z,1008.3
2017-11-03T03:36:36.648Z,1008.3
2017-11-03T03:37:39.021Z,1008.3
2017-11-03T03:38:41.403Z,1008.4
2017-11-03T03:39:43.764Z,1008.3
2017-11-03T03:40:46.135Z,1008.3
2017-11-03T03:41:48.505Z,1008.4
2017-11-03T03:42:50.873Z,1008.4
2017-11-03T03:43:53.252Z,1008.4
2017-11-03T03:44:55.628Z,1008.4
2017-11-03T03:45:58.000Z,1008.5
2017-11-03T03:47:00.372Z,1008.5
2017-11-03T03:48:02.745Z,1008.4
2017-11-03T03:49:05.130Z,1008.4
2017-11-03T03:50:07.497Z,1008.5
2017-11-03T03:51:09.871Z,1008.5
2017-11-03T03:52:12.236Z,1008.5
2017-11-03T03:53:14.601Z,1008.5
2017-11-03T03:54:17.335Z,1008.5
2017-11-03T03:55:19.700Z,1008.5
2017-11-03T03:56:22.063Z,1008.5
2017-11-03T03:57:24.797Z,1008.5
2017-11-03T03:58:27.157Z,1008.5
2017-11-03T03:59:29.534Z,1008.5
2017-11-03T04:00:32.265Z,1008.5
2017-11-03T04:01:34.639Z,1008.5
2017-11-03T04:02:37.016Z,1008.6
2017-11-03T04:03:39.394Z,1008.5
2017-11-03T04:04:41.757Z,1008.6
2017-11-03T04:05:44.499Z,1008.6
2017-11-03T04:06:46.872Z,1008.6
2017-11-03T04:07:49.235Z,1008.6
2017-11-03T04:08:51.617Z,1008.6
2017-11-03T04:09:53.981Z,1008.7
2017-11-03T04:10:56.353Z,1008.6
2017-11-03T04:11:59.075Z,1008.6
2017-11-03T04:13:01.453Z,1008.6
2017-11-03T04:14:03.823Z,1008.6
2017-11-03T04:15:06.199Z,1008.7
2017-11-03T04:16:08.570Z,1008.6
2017-11-03T04:17:10.945Z,1008.7
2017-11-03T04:18:13.317Z,1008.7
2017-11-03T04:19:15.682Z,1008.7
2017-11-03T04:20:18.055Z,1008.7
2017-11-03T04:21:20.431Z,1008.7
2017-11-03T04:22:22.788Z,1008.7
2017-11-03T04:23:25.167Z,1008.7
2017-11-03T04:24:27.533Z,1008.7
2017-11-03T04:25:29.903Z,1008.7
2017-11-03T04:26:32.274Z,1008.7
2017-11-03T04:27:34.654Z,1008.7
2017-11-03T04:28:37.025Z,1008.7
2017-11-03T04:29:39.413Z,1008.7
2017-11-03T04:30:41.791Z,1008.8
2017-11-03T04:31:44.149Z,1008.8
2017-11-03T04:32:46.878Z,1008.7
2017-11-03T04:33:49.248Z,1008.7
2017-11-03T04:34:51.621Z,1008.7
2017-11-03T04:35:53.985Z,1008.7
2017-11-03T04:36:56.344Z,1008.7
2017-11-03T04:37:58.717Z,1008.8
2017-11-03T04:39:01.097Z,1008.7
2017-11-03T04:40:03.826Z,1008.8
2017-11-03T04:41:06.188Z,1008.8
2017-11-03T04:42:08.556Z,1008.8
2017-11-03T04:43:10.936Z,1008.8
2017-11-03T04:44:13.650Z,1008.7
2017-11-03T04:45:16.013Z,1008.7
2017-11-03T04:46:18.396Z,1008.7
2017-11-03T04:47:20.763Z,1008.7
2017-11-03T04:48:23.136Z,1008.7
2017-11-03T04:49:25.512Z,1008.7
2017-11-03T04:50:27.889Z,1008.8
2017-11-03T04:51:30.260Z,1008.8
2017-11-03T04:52:32.641Z,1008.8
2017-11-03T04:53:34.995Z,1008.8
2017-11-03T04:54:37.367Z,1008.8
2017-11-03T04:55:39.748Z,1008.7
2017-11-03T04:56:42.107Z,1008.7
2017-11-03T04:57:44.490Z,1008.7
2017-11-03T04:58:47.208Z,1008.7
2017-11-03T04:59:49.583Z,1008.8
2017-11-03T05:00:51.955Z,1008.8
2017-11-03T05:01:54.326Z,1008.8
2017-11-03T05:02:56.687Z,1008.8
2017-11-03T05:03:59.073Z,1008.7
2017-11-03T05:05:01.433Z,1008.8
2017-11-03T05:06:03.811Z,1008.8
2017-11-03T05:07:06.191Z,1008.8
2017-11-03T05:08:08.560Z,1008.8
2017-11-03T05:09:10.935Z,1008.8
2017-11-03T05:10:13.318Z,1008.8
2017-11-03T05:11:16.043Z,1008.8
2017-11-03T05:12:18.408Z,1008.8
2017-11-03T05:13:20.787Z,1008.8
2017-11-03T05:14:23.153Z,1008.8
2017-11-03T05:15:25.522Z,1008.9
2017-11-03T05:16:28.241Z,1008.9
2017-11-03T05:17:30.622Z,1008.9
2017-11-03T05:18:32.976Z,1008.8
2017-11-03T05:19:35.718Z,1008.9
2017-11-03T05:20:38.090Z,1008.9
2017-11-03T05:21:40.814Z,1008.8
2017-11-03T05:22:43.539Z,1008.9
2017-11-03T05:23:45.912Z,1008.9
2017-11-03T05:24:48.276Z,1008.9
2017-11-03T05:25:50.650Z,1008.9
2017-11-03T05:26:53.022Z,1008.9
2017-11-03T05:27:55.390Z,1008.9
2017-11-03T05:28:57.786Z,1008.9
2017-11-03T05:30:00.149Z,1008.9
2017-11-03T05:31:02.513Z,1008.9
2017-11-03T05:32:04.883Z,1008.9
2017-11-03T05:33:07.257Z,1009
2017-11-03T05:34:09.632Z,1008.9
2017-11-03T05:35:12.359Z,1008.9
2017-11-03T05:36:14.727Z,1008.9
2017-11-03T05:37:17.459Z,1008.9
2017-11-03T05:38:19.830Z,1008.9
2017-11-03T05:39:22.203Z,1009
2017-11-03T05:40:24.575Z,1008.9
2017-11-03T05:41:26.934Z,1009
2017-11-03T05:42:29.306Z,1009
2017-11-03T05:43:31.669Z,1009
2017-11-03T05:44:34.037Z,1008.9
2017-11-03T05:45:36.408Z,1009
2017-11-03T05:46:38.778Z,1009
2017-11-03T05:47:41.152Z,1009
2017-11-03T05:48:43.524Z,1009
2017-11-03T05:49:45.895Z,1009
2017-11-03T05:50:48.272Z,1009
2017-11-03T05:51:50.651Z,1009
2017-11-03T05:52:53.014Z,1008.9
2017-11-03T05:53:55.383Z,1009
2017-11-03T05:54:57.758Z,1009
2017-11-03T05:56:00.477Z,1009
2017-11-03T05:57:03.197Z,1009
2017-11-03T05:58:05.571Z,1009
2017-11-03T05:59:07.945Z,1009
2017-11-03T06:00:11.022Z,1009.1
2017-11-03T06:01:13.749Z,1009.1
2017-11-03T06:02:16.114Z,1009.1
2017-11-03T06:03:18.497Z,1009.1
2017-11-03T06:04:20.863Z,1009.1
2017-11-03T06:05:23.236Z,1009.1
2017-11-03T06:06:25.610Z,1009.1
2017-11-03T06:07:27.977Z,1009.1
2017-11-03T06:08:30.705Z,1009.1
2017-11-03T06:09:33.426Z,1009.1
2017-11-03T06:10:35.786Z,1009.1
2017-11-03T06:11:38.174Z,1009.1
2017-11-03T06:12:41.284Z,1009.1
2017-11-03T06:13:43.653Z,1009.1
2017-11-03T06:14:46.025Z,1009.1
2017-11-03T06:15:48.403Z,1009.1
2017-11-03T06:16:50.774Z,1009.1
2017-11-03T06:17:53.149Z,1009.2
2017-11-03T06:18:55.513Z,1009.1
2017-11-03T06:19:57.881Z,1009.1
2017-11-03T06:21:00.262Z,1009.2
2017-11-03T06:22:02.637Z,1009.2
2017-11-03T06:23:05.002Z,1009.2
2017-11-03T06:24:07.379Z,1009.2
2017-11-03T06:25:09.751Z,1009.2
2017-11-03T06:26:12.134Z,1009.2
2017-11-03T06:27:14.497Z,1009.2
2017-11-03T06:28:16.867Z,1009.2
2017-11-03T06:29:19.247Z,1009.2
2017-11-03T06:30:21.984Z,1009.2
2017-11-03T06:31:24.358Z,1009.3
2017-11-03T06:32:27.084Z,1009.3
2017-11-03T06:33:29.442Z,1009.3
2017-11-03T06:34:31.817Z,1009.3
2017-11-03T06:35:34.568Z,1009.3
2017-11-03T06:36:36.933Z,1009.2
2017-11-03T06:37:39.305Z,1009.3
2017-11-03T06:38:41.674Z,1009.3
2017-11-03T06:39:44.047Z,1009.3
2017-11-03T06:40:46.421Z,1009.3
2017-11-03T06:41:48.793Z,1009.3
2017-11-03T06:42:51.176Z,1009.3
2017-11-03T06:43:53.552Z,1009.3
2017-11-03T06:44:55.920Z,1009.3
2017-11-03T06:45:58.301Z,1009.4
2017-11-03T06:47:00.664Z,1009.3
2017-11-03T06:48:03.050Z,1009.3
2017-11-03T06:49:05.786Z,1009.4
2017-11-03T06:50:08.155Z,1009.3
2017-11-03T06:51:10.526Z,1009.3
2017-11-03T06:52:12.899Z,1009.4
2017-11-03T06:53:15.627Z,1009.3
2017-11-03T06:54:18.001Z,1009.4
2017-11-03T06:55:20.376Z,1009.5
2017-11-03T06:56:22.749Z,1009.4
2017-11-03T06:57:25.135Z,1009.4
2017-11-03T06:58:27.504Z,1009.4
2017-11-03T06:59:29.866Z,1009.4
2017-11-03T07:00:32.251Z,1009.4
2017-11-03T07:01:34.626Z,1009.4
2017-11-03T07:02:37.008Z,1009.4
2017-11-03T07:03:39.376Z,1009.4
2017-11-03T07:04:41.749Z,1009.5
2017-11-03T07:05:44.116Z,1009.5
2017-11-03T07:06:46.506Z,1009.5
2017-11-03T07:07:48.870Z,1009.5
2017-11-03T07:08:51.239Z,1009.5
2017-11-03T07:09:53.616Z,1009.4
2017-11-03T07:10:56.003Z,1009.5
2017-11-03T07:11:58.367Z,1009.5
2017-11-03T07:13:00.747Z,1009.5
2017-11-03T07:14:03.126Z,1009.5
2017-11-03T07:15:05.498Z,1009.5
2017-11-03T07:16:07.861Z,1009.5
2017-11-03T07:17:10.237Z,1009.5
2017-11-03T07:18:12.960Z,1009.5
2017-11-03T07:19:15.332Z,1009.5
2017-11-03T07:20:17.712Z,1009.5
2017-11-03T07:21:20.086Z,1009.5
2017-11-03T07:22:22.815Z,1009.5
2017-11-03T07:23:25.915Z,1009.5
2017-11-03T07:24:28.290Z,1009.5
2017-11-03T07:25:30.662Z,1009.5
2017-11-03T07:26:33.037Z,1009.5
2017-11-03T07:27:35.412Z,1009.5
2017-11-03T07:28:37.788Z,1009.5
2017-11-03T07:29:40.170Z,1009.5
2017-11-03T07:30:42.882Z,1009.5
2017-11-03T07:31:45.259Z,1009.5
2017-11-03T07:32:47.627Z,1009.5
2017-11-03T07:33:49.998Z,1009.5
2017-11-03T07:34:52.370Z,1009.5
2017-11-03T07:35:54.741Z,1009.6
2017-11-03T07:36:57.118Z,1009.5
2017-11-03T07:37:59.507Z,1009.5
2017-11-03T07:39:01.871Z,1009.5
2017-11-03T07:40:04.250Z,1009.5
2017-11-03T07:41:06.626Z,1009.5
2017-11-03T07:42:09.003Z,1009.5
2017-11-03T07:43:11.378Z,1009.5
2017-11-03T07:44:13.742Z,1009.5
2017-11-03T07:45:16.122Z,1009.5
2017-11-03T07:46:18.492Z,1009.5
2017-11-03T07:47:20.867Z,1009.5
2017-11-03T07:48:23.243Z,1009.5
2017-11-03T07:49:25.621Z,1009.5
2017-11-03T07:50:27.991Z,1009.5
2017-11-03T07:51:30.376Z,1009.6
2017-11-03T07:52:32.745Z,1009.7
2017-11-03T07:53:35.113Z,1009.7
2017-11-03T07:54:37.487Z,1009.7
2017-11-03T07:55:39.862Z,1009.6
2017-11-03T07:56:42.232Z,1009.6
2017-11-03T07:57:44.617Z,1009.7
2017-11-03T07:58:46.981Z,1009.7
2017-11-03T07:59:49.355Z,1009.7
2017-11-03T08:00:51.727Z,1009.7
2017-11-03T08:01:54.104Z,1009.7
2017-11-03T08:02:56.472Z,1009.7
2017-11-03T08:03:58.856Z,1009.8
2017-11-03T08:05:01.219Z,1009.7
2017-11-03T08:06:03.609Z,1009.7
2017-11-03T08:07:05.989Z,1009.7
2017-11-03T08:08:08.366Z,1009.8
2017-11-03T08:09:10.741Z,1009.7
2017-11-03T08:10:13.112Z,1009.7
2017-11-03T08:11:15.487Z,1009.7
2017-11-03T08:12:17.862Z,1009.8
2017-11-03T08:13:20.253Z,1009.8
2017-11-03T08:14:22.627Z,1009.7
2017-11-03T08:15:24.993Z,1009.7
2017-11-03T08:16:27.377Z,1009.8
2017-11-03T08:17:29.755Z,1009.8
2017-11-03T08:18:32.132Z,1009.8
2017-11-03T08:19:34.510Z,1009.8
2017-11-03T08:20:36.878Z,1009.8
2017-11-03T08:21:39.276Z,1009.8
2017-11-03T08:22:41.662Z,1009.8
2017-11-03T08:23:44.039Z,1009.8
2017-11-03T08:24:46.414Z,1009.8
2017-11-03T08:25:49.149Z,1009.8
2017-11-03T08:26:51.521Z,1009.8
2017-11-03T08:27:53.902Z,1009.8
2017-11-03T08:28:56.268Z,1009.8
2017-11-03T08:29:58.641Z,1009.8
2017-11-03T08:31:01.022Z,1009.8
2017-11-03T08:32:03.392Z,1009.8
2017-11-03T08:33:05.764Z,1009.8
2017-11-03T08:34:08.492Z,1009.8
2017-11-03T08:35:10.867Z,1009.8
2017-11-03T08:36:13.241Z,1009.8
2017-11-03T08:37:15.624Z,1009.9
2017-11-03T08:38:18.012Z,1009.8
2017-11-03T08:39:20.361Z,1009.9
2017-11-03T08:40:22.734Z,1009.8
2017-11-03T08:41:25.108Z,1009.9
2017-11-03T08:42:27.474Z,1009.8
2017-11-03T08:43:29.853Z,1009.8
2017-11-03T08:44:32.232Z,1009.8
2017-11-03T08:45:34.611Z,1009.8
2017-11-03T08:46:37.003Z,1009.8
2017-11-03T08:47:39.396Z,1009.8
2017-11-03T08:48:41.759Z,1009.8
2017-11-03T08:49:44.128Z,1009.8
2017-11-03T08:50:46.505Z,1009.8
2017-11-03T08:51:48.877Z,1009.9
2017-11-03T08:52:51.260Z,1009.9
2017-11-03T08:53:53.663Z,1009.9
2017-11-03T08:54:56.037Z,1009.9
2017-11-03T08:55:58.759Z,1009.9
2017-11-03T08:57:01.147Z,1010
2017-11-03T08:58:03.518Z,1010
2017-11-03T08:59:05.922Z,1009.9
2017-11-03T09:00:08.321Z,1009.9
2017-11-03T09:01:10.696Z,1009.9
2017-11-03T09:02:13.074Z,1009.9
2017-11-03T09:03:15.449Z,1010
2017-11-03T09:04:17.822Z,1010
2017-11-03T09:05:20.212Z,1010
2017-11-03T09:06:22.603Z,1010
2017-11-03T09:07:24.956Z,1010
2017-11-03T09:08:27.334Z,1010
2017-11-03T09:09:29.709Z,1010
2017-11-03T09:10:32.482Z,1010
2017-11-03T09:11:34.853Z,1010
2017-11-03T09:12:37.234Z,1010
2017-11-03T09:13:39.615Z,1010
2017-11-03T09:14:41.991Z,1010
2017-11-03T09:15:44.377Z,1010
2017-11-03T09:16:46.749Z,1010
2017-11-03T09:17:49.126Z,1010
2017-11-03T09:18:51.497Z,1010
2017-11-03T09:19:54.226Z,1010
2017-11-03T09:20:56.588Z,1010
2017-11-03T09:21:59.327Z,1010.1
2017-11-03T09:23:01.691Z,1010.1
2017-11-03T09:24:04.072Z,1010.1
2017-11-03T09:25:06.445Z,1010.1
2017-11-03T09:26:08.821Z,1010.1
2017-11-03T09:27:11.206Z,1010.1
2017-11-03T09:28:13.589Z,1010.1
2017-11-03T09:29:15.971Z,1010
2017-11-03T09:30:18.375Z,1010.1
2017-11-03T09:31:20.726Z,1010.1
2017-11-03T09:32:23.103Z,1010.1
2017-11-03T09:33:25.477Z,1010.1
2017-11-03T09:34:27.855Z,1010.1
2017-11-03T09:35:30.225Z,1010.2
2017-11-03T09:36:32.601Z,1010.1
2017-11-03T09:37:34.976Z,1010.1
2017-11-03T09:38:37.347Z,1010.1
2017-11-03T09:39:39.729Z,1010.1
2017-11-03T09:40:42.105Z,1010
2017-11-03T09:41:44.478Z,1010.1
2017-11-03T09:42:46.856Z,1010
2017-11-03T09:43:49.227Z,1010
2017-11-03T09:44:51.598Z,1010
2017-11-03T09:45:53.986Z,1010
2017-11-03T09:46:56.358Z,1010
2017-11-03T09:47:58.727Z,1010
2017-11-03T09:49:01.105Z,1010.1
2017-11-03T09:50:03.492Z,1010
2017-11-03T09:51:05.875Z,1010.1
2017-11-03T09:52:08.258Z,1010.1
2017-11-03T09:53:10.628Z,1010.2
2017-11-03T09:54:13.003Z,1010.1
2017-11-03T09:55:15.393Z,1010.1
2017-11-03T09:56:17.777Z,1010.1
2017-11-03T09:57:20.153Z,1010.1
2017-11-03T09:58:22.531Z,1010.1
2017-11-03T09:59:24.912Z,1010.2
2017-11-03T10:00:27.642Z,1010.1
2017-11-03T10:01:30.077Z,1010.1
2017-11-03T10:02:32.633Z,1010.1
2017-11-03T10:03:35.833Z,1010.2
2017-11-03T10:04:43.178Z,1010.2
2017-11-03T10:05:45.555Z,1010.2
2017-11-03T10:06:48.059Z,1010.2
2017-11-03T10:07:58.419Z,1010.2
2017-11-03T10:09:09.481Z,1010.2
2017-11-03T10:10:14.649Z,1010.2
2017-11-03T10:11:20.416Z,1010.2
2017-11-03T10:12:27.729Z,1010.2
2017-11-03T10:13:32.735Z,1010.1
2017-11-03T10:14:38.420Z,1010.2
2017-11-03T10:15:43.576Z,1010.1
2017-11-03T10:16:48.517Z,1010.1
2017-11-03T10:17:54.813Z,1010.1
2017-11-03T10:19:22.770Z,1010.1
2017-11-03T10:20:41.067Z,1010.1
2017-11-03T10:21:53.741Z,1010.1
2017-11-03T10:23:06.149Z,1010
2017-11-03T10:24:24.440Z,1010
2017-11-03T10:25:32.573Z,1010
2017-11-03T10:26:43.063Z,1010
2017-11-03T10:27:50.261Z,1009.9
2017-11-03T10:29:05.867Z,1010
2017-11-03T10:30:15.928Z,1010
2017-11-03T10:31:43.479Z,1010
2017-11-03T10:32:59.410Z,1010
2017-11-03T10:34:25.108Z,1009.9
2017-11-03T10:35:43.070Z,1010
2017-11-03T10:36:51.043Z,1010
2017-11-03T10:38:02.223Z,1009.9
2017-11-03T10:39:08.158Z,1009.9
2017-11-03T10:40:10.529Z,1009.9
2017-11-03T10:41:12.915Z,1009.9
2017-11-03T10:42:15.291Z,1009.9
2017-11-03T10:43:17.667Z,1009.9
2017-11-03T10:44:20.051Z,1009.9
2017-11-03T10:45:22.427Z,1009.9
2017-11-03T10:46:24.808Z,1009.8
2017-11-03T10:47:27.522Z,1009.8
2017-11-03T10:48:29.904Z,1009.8
2017-11-03T10:49:32.282Z,1009.8
2017-11-03T10:50:34.654Z,1009.8
2017-11-03T10:51:37.025Z,1009.8
2017-11-03T10:52:39.404Z,1009.7
2017-11-03T10:53:41.781Z,1009.7
2017-11-03T10:54:44.164Z,1009.7
2017-11-03T10:55:46.881Z,1009.7
2017-11-03T10:56:49.263Z,1009.7
2017-11-03T10:57:51.655Z,1009.6
2017-11-03T10:58:54.022Z,1009.6
2017-11-03T10:59:56.399Z,1009.6
2017-11-03T11:00:58.779Z,1009.6
2017-11-03T11:02:01.502Z,1009.6
2017-11-03T11:03:03.881Z,1009.6
2017-11-03T11:04:06.259Z,1009.6
2017-11-03T11:05:08.633Z,1009.6
2017-11-03T11:06:11.026Z,1009.6
2017-11-03T11:07:13.414Z,1009.6
2017-11-03T11:08:15.791Z,1009.6
2017-11-03T11:09:18.170Z,1009.5
2017-11-03T11:10:20.553Z,1009.6
2017-11-03T11:11:22.920Z,1009.6
2017-11-03T11:12:25.298Z,1009.6
2017-11-03T11:13:27.691Z,1009.6
2017-11-03T11:14:30.068Z,1009.7
2017-11-03T11:15:32.436Z,1009.7
2017-11-03T11:16:34.816Z,1009.7
2017-11-03T11:17:37.202Z,1009.7
2017-11-03T11:18:39.589Z,1009.7
2017-11-03T11:19:41.975Z,1009.7
2017-11-03T11:20:44.339Z,1009.6
2017-11-03T11:21:46.723Z,1009.6
2017-11-03T11:22:49.113Z,1009.6
2017-11-03T11:23:51.849Z,1009.7
2017-11-03T11:24:54.226Z,1009.6
2017-11-03T11:25:56.600Z,1009.7
2017-11-03T11:26:59.341Z,1009.7
2017-11-03T11:28:01.722Z,1009.7
2017-11-03T11:29:04.102Z,1009.7
2017-11-03T11:30:06.473Z,1009.7
2017-11-03T11:31:09.200Z,1009.7
2017-11-03T11:32:11.578Z,1009.7
2017-11-03T11:33:13.959Z,1009.7
2017-11-03T11:34:16.346Z,1009.7
2017-11-03T11:35:18.720Z,1009.7
2017-11-03T11:36:21.107Z,1009.7
2017-11-03T11:37:23.492Z,1009.7
2017-11-03T11:38:26.222Z,1009.7
2017-11-03T11:39:28.956Z,1009.7
2017-11-03T11:40:31.334Z,1009.7
2017-11-03T11:41:33.713Z,1009.7
2017-11-03T11:42:36.087Z,1009.7
2017-11-03T11:43:38.461Z,1009.7
2017-11-03T11:44:40.843Z,1009.7
2017-11-03T11:45:43.226Z,1009.8
2017-11-03T11:46:45.598Z,1009.7
2017-11-03T11:47:47.985Z,1009.8
2017-11-03T11:48:50.379Z,1009.7
2017-11-03T11:49:52.746Z,1009.7
2017-11-03T11:50:55.120Z,1009.7
2017-11-03T11:51:57.497Z,1009.6
2017-11-03T11:52:59.862Z,1009.7
2017-11-03T11:54:02.247Z,1009.7
2017-11-03T11:55:04.960Z,1009.7
2017-11-03T11:56:07.352Z,1009.7
2017-11-03T11:57:09.731Z,1009.7
2017-11-03T11:58:12.103Z,1009.6
2017-11-03T11:59:14.486Z,1009.7
2017-11-03T12:00:16.857Z,1009.7
2017-11-03T12:01:19.238Z,1009.7
2017-11-03T12:02:21.960Z,1009.7
2017-11-03T12:03:24.330Z,1009.7
2017-11-03T12:04:26.703Z,1009.7
2017-11-03T12:05:29.105Z,1009.7
2017-11-03T12:06:31.465Z,1009.6
2017-11-03T12:07:33.831Z,1009.6
2017-11-03T12:08:36.213Z,1009.6
2017-11-03T12:09:38.583Z,1009.6
2017-11-03T12:10:40.959Z,1009.7
2017-11-03T12:11:43.331Z,1009.7
2017-11-03T12:12:45.701Z,1009.6
2017-11-03T12:13:48.427Z,1009.7
2017-11-03T12:14:50.812Z,1009.6
2017-11-03T12:15:53.179Z,1009.7
2017-11-03T12:16:55.560Z,1009.7
2017-11-03T12:17:58.278Z,1009.6
2017-11-03T12:19:00.652Z,1009.6
2017-11-03T12:20:03.374Z,1009.6
2017-11-03T12:21:05.753Z,1009.7
2017-11-03T12:22:08.116Z,1009.6
2017-11-03T12:23:10.495Z,1009.6
2017-11-03T12:24:13.224Z,1009.6
2017-11-03T12:25:15.658Z,1009.6
2017-11-03T12:26:18.028Z,1009.6
2017-11-03T12:27:20.764Z,1009.5
2017-11-03T12:28:23.125Z,1009.6
2017-11-03T12:29:25.505Z,1009.6
2017-11-03T12:30:27.881Z,1009.6
2017-11-03T12:31:30.253Z,1009.6
2017-11-03T12:32:32.625Z,1009.6
2017-11-03T12:33:35.002Z,1009.6
2017-11-03T12:34:37.371Z,1009.7
2017-11-03T12:35:39.754Z,1009.6
2017-11-03T12:36:42.116Z,1009.6
2017-11-03T12:37:44.490Z,1009.6
2017-11-03T12:38:46.864Z,1009.6
2017-11-03T12:39:49.239Z,1009.6
2017-11-03T12:40:51.617Z,1009.6
2017-11-03T12:41:53.992Z,1009.6
2017-11-03T12:42:56.712Z,1009.6
2017-11-03T12:43:59.085Z,1009.6
2017-11-03T12:45:01.456Z,1009.6
2017-11-03T12:46:03.846Z,1009.5
2017-11-03T12:47:06.212Z,1009.6
2017-11-03T12:48:08.586Z,1009.6
2017-11-03T12:49:10.965Z,1009.6
2017-11-03T12:50:13.341Z,1009.6
2017-11-03T12:51:15.718Z,1009.6
2017-11-03T12:52:18.099Z,1009.6
2017-11-03T12:53:20.474Z,1009.6
2017-11-03T12:54:22.848Z,1009.7
2017-11-03T12:55:25.221Z,1009.6
2017-11-03T12:56:27.597Z,1009.6
2017-11-03T12:57:29.976Z,1009.6
2017-11-03T12:58:32.345Z,1009.6
2017-11-03T12:59:34.719Z,1009.6
2017-11-03T13:00:37.112Z,1009.6
2017-11-03T13:01:39.490Z,1009.6
2017-11-03T13:02:42.510Z,1009.6
2017-11-03T13:03:45.395Z,1009.6
2017-11-03T13:04:48.036Z,1009.6
2017-11-03T13:05:50.981Z,1009.6
2017-11-03T13:06:56.730Z,1009.6
2017-11-03T13:07:59.506Z,1009.6